Portada
METAR-TAF:

METAR-TAF

Aeropuertos :

Aeropuerto de Sherbrooke

Sherbrooke, Quebec, Canadá

latitud: 45-24N, longitud: 071-53W, altitud: 170 m

Observación

El informe se hizo hace 24 minutos, a las 23:00 UTC
Viento 3 kt del norte
Temperatura 11°C
Humedad 50%
Presión 1034 hPa
Visibilidad: 14.5 km
Cielo despejado

METAR: CYSC 242300Z AUTO 01003KT 9SM CLR 11/01 A3054 RMK SLP352

Hora: 19:24 (23:24 UTC)

Pronóstico

El informe se hizo hace 5 horas y 42 minutos, a las 17:42 UTC
Pronóstico válido del 24 a las 18 UTC al 25 a las 03 UTC
Viento 6 kt del este
Visibilidad: 10 km
Escasas nubes a una altura de 25000 ft

TAF: CYSC 241742Z 2418/2503 08006KT P6SM FEW250 RMK FCST BASED ON AUTO OBS. NXT FCST BY 250000Z

Observaciones y pronósticos meteorológicos de más de 4000 aeropuertos (mensajes METAR y TAF).

Los puntos amarillos y rojos representan las estaciones disponibles.

Ponga el ratón en el punto deseado para ver el nombre de la estación.

Haga clic para ver las observaciones y los pronósticos meteorológicos.

Para cambiar el mapa : haga clic en los botones verdes con una cruz de color negro para hacer un zoom, en el botón verde con un guión para alejar o en las flechas verdes para mapas adyacentes.


METAR-TAF: